Impacts METAR Board
IDs:

KLGA - New York/La Guardia, NY, US

Updated at: 0100 UTC 31 May 2020
Potential Impact None Slight Moderate High
Time 30/13Z 30/14Z 30/15Z 30/16Z 30/17Z 30/18Z 30/19Z 30/20Z 30/21Z 30/22Z 30/23Z 31/00Z 31/01Z
Temp71 71 73 74 76 78 80 83 82 81 82 81 78
Dewpt58 54 52 52 50 48 47 44 44 45 41 42 48
Altim29.90 29.90 29.90 29.90 29.88 29.87 29.86 29.85 29.85 29.84 29.85 29.85 29.87
VIS10 10 10 10 10 10 10 10 10 10 10 10 10
CIG150 150 250 -- -- -- -- -- -- 250 250 100 100
CoverBKNBKNBKNSCTSCTSCTSCTSCTSCTBKNBKNBKNBKN
FltCatVFRVFRVFRVFRVFRVFRVFRVFRVFRVFRVFRVFRVFR
WX--------------------------
WDir310320310300320310320250300320240270280
WSpd14 13 15 7 10 10 7 12 12 11 10 12 11
WGst-- -- 19 -- -- -- -- 16 16 -- -- -- --
Raw hourly METARs
KLGA 301251Z 31014KT 10SM SCT024 BKN150 BKN250 22/14 A2990 RMK AO2 SLP124 SCT024 V BKN T02170144
KLGA 301351Z 32013KT 10SM SCT026 BKN150 BKN250 22/12 A2990 RMK AO2 SLP126 T02170122
KLGA 301451Z 31015G19KT 10SM FEW030 SCT150 BKN250 23/11 A2990 RMK AO2 SLP125 T02280111 50004
KLGA 301551Z 30007KT 10SM FEW040 FEW090 SCT250 23/11 A2990 RMK AO2 SLP124 T02330111
KLGA 301651Z 32010KT 10SM FEW050 FEW100 SCT250 24/10 A2988 RMK AO2 SLP119 T02440100
KLGA 301751Z 31010KT 10SM FEW055 FEW110 SCT250 26/09 A2987 RMK AO2 SLP113 T02560089 10256 20211 58012
KLGA 301851Z 32007KT 10SM FEW060 FEW110 SCT250 27/08 A2986 RMK AO2 SLP110 T02670083
KLGA 301951Z 25012G16KT 10SM SCT075 SCT110 SCT250 28/07 A2985 RMK AO2 SLP106 T02830067
KLGA 302051Z 30012G16KT 10SM SCT080 SCT120 SCT250 28/07 A2985 RMK AO2 SLP106 T02780067 56007
KLGA 302151Z 32011KT 10SM SCT090 BKN250 27/07 A2984 RMK AO2 SLP104 T02720072
KLGA 302251Z 24010KT 10SM SCT080 SCT100 BKN250 28/05 A2985 RMK AO2 SLP106 T02780050
KLGA 302351Z 27012KT 10SM FEW080 BKN100 BKN250 27/06 A2985 RMK AO2 SLP109 T02720056 10289 20256 53003
KLGA 310051Z 28011KT 10SM FEW080 BKN100 BKN250 26/09 A2987 RMK AO2 SLP114 T02560089



Page loaded:  01:42 UTC  |   06:42 PM Pacific  |   07:42 PM Mountain  |   08:42 PM Central  |   09:42 PM Eastern

 

ADVISORIES

FORECASTS

FORECASTS

OBSERVATIONS

USER TOOLS

ABOUT US